sensor_id;sensor_type;location;lat;lon;timestamp;pressure;altitude;pressure_sealevel;temperature;humidity
69171;BME280;56279;47.902;12.308;2023-12-07T07:09:23;95817.41;;;0.02;100.00
69171;BME280;56279;47.902;12.308;2023-12-07T07:11:24;95817.59;;;0.00;100.00
69171;BME280;56279;47.902;12.308;2023-12-07T07:13:25;95812.59;;;-0.01;100.00
69171;BME280;56279;47.902;12.308;2023-12-07T07:15:27;95821.38;;;-0.02;100.00
69171;BME280;56279;47.902;12.308;2023-12-07T07:17:28;95816.59;;;-0.05;100.00
69171;BME280;56279;47.902;12.308;2023-12-07T07:19:30;95818.38;;;-0.06;100.00
69171;BME280;56279;47.902;12.308;2023-12-07T07:21:34;95818.38;;;-0.06;100.00
69171;BME280;56279;47.902;12.308;2023-12-07T07:23:43;95819.19;;;-0.05;100.00
69171;BME280;56279;47.902;12.308;2023-12-07T07:25:47;95818.19;;;-0.04;100.00
69171;BME280;56279;47.902;12.308;2023-12-07T07:27:48;95822.19;;;-0.02;100.00
69171;BME280;56279;47.902;12.308;2023-12-07T07:41:57;95825.75;;;-0.16;100.00
69171;BME280;56279;47.902;12.308;2023-12-07T07:43:59;95829.16;;;-0.15;100.00
69171;BME280;56279;47.902;12.308;2023-12-07T07:46:00;95827.53;;;-0.16;100.00
69171;BME280;56279;47.902;12.308;2023-12-07T07:48:03;95833.53;;;-0.16;100.00
69171;BME280;56279;47.902;12.308;2023-12-07T07:50:06;95832.72;;;-0.16;100.00
69171;BME280;56279;47.902;12.308;2023-12-07T07:52:07;95831.16;;;-0.17;100.00
69171;BME280;56279;47.902;12.308;2023-12-07T07:54:11;95835.94;;;-0.14;100.00
69171;BME280;56279;47.902;12.308;2023-12-07T07:56:12;95835.94;;;-0.14;100.00
69171;BME280;56279;47.902;12.308;2023-12-07T07:58:14;95831.34;;;-0.12;100.00
69171;BME280;56279;47.902;12.308;2023-12-07T08:17:09;95836.34;;;-0.04;100.00
69171;BME280;56279;47.902;12.308;2023-12-07T08:19:13;95834.56;;;-0.04;100.00
69171;BME280;56279;47.902;12.308;2023-12-07T08:21:20;95835.16;;;-0.02;100.00
69171;BME280;56279;47.902;12.308;2023-12-07T10:35:30;95771.88;;;2.03;88.29
69171;BME280;56279;47.902;12.308;2023-12-07T10:37:32;95773.25;;;2.05;87.79
69171;BME280;56279;47.902;12.308;2023-12-07T10:39:35;95770.59;;;2.12;87.86
69171;BME280;56279;47.902;12.308;2023-12-07T10:41:37;95766.56;;;2.16;87.01
69171;BME280;56279;47.902;12.308;2023-12-07T10:43:43;95772.94;;;2.20;87.06
69171;BME280;56279;47.902;12.308;2023-12-07T10:45:48;95770.72;;;2.24;86.91
69171;BME280;56279;47.902;12.308;2023-12-07T10:47:50;95764.06;;;2.28;86.23
69171;BME280;56279;47.902;12.308;2023-12-07T10:49:54;95761.03;;;2.31;85.55
69171;BME280;56279;47.902;12.308;2023-12-07T10:52:03;95750.41;;;2.32;84.30
69171;BME280;56279;47.902;12.308;2023-12-07T10:54:07;95751.56;;;2.36;83.54
69171;BME280;56279;47.902;12.308;2023-12-07T10:56:35;95754.72;;;2.38;82.43
69171;BME280;56279;47.902;12.308;2023-12-07T10:58:42;95751.72;;;2.41;82.18
69171;BME280;56279;47.902;12.308;2023-12-07T11:00:46;95744.47;;;2.43;82.24
69171;BME280;56279;47.902;12.308;2023-12-07T11:02:48;95751.06;;;2.46;81.67
69171;BME280;56279;47.902;12.308;2023-12-07T11:04:50;95745.44;;;2.49;81.76
69171;BME280;56279;47.902;12.308;2023-12-07T11:06:56;95745.78;;;2.52;80.71
69171;BME280;56279;47.902;12.308;2023-12-07T11:09:08;95742.53;;;2.57;80.55
69171;BME280;56279;47.902;12.308;2023-12-07T11:13:38;95726.31;;;2.55;80.48
69171;BME280;56279;47.902;12.308;2023-12-07T11:15:44;95739.16;;;2.56;80.87
69171;BME280;56279;47.902;12.308;2023-12-07T11:17:55;95736.53;;;2.56;80.34
69171;BME280;56279;47.902;12.308;2023-12-07T11:19:56;95737.69;;;2.60;79.65
69171;BME280;56279;47.902;12.308;2023-12-07T11:21:59;95739.25;;;2.61;80.31
69171;BME280;56279;47.902;12.308;2023-12-07T11:29:13;95733.28;;;2.61;79.15
69171;BME280;56279;47.902;12.308;2023-12-07T11:31:15;95732.25;;;2.62;79.34
69171;BME280;56279;47.902;12.308;2023-12-07T11:33:19;95723.22;;;2.64;79.04
69171;BME280;56279;47.902;12.308;2023-12-07T11:35:20;95728.66;;;2.63;78.92
69171;BME280;56279;47.902;12.308;2023-12-07T11:37:22;95724.44;;;2.62;78.54
69171;BME280;56279;47.902;12.308;2023-12-07T11:39:24;95716.63;;;2.62;78.05
69171;BME280;56279;47.902;12.308;2023-12-07T11:46:14;95716.53;;;2.68;77.60
69171;BME280;56279;47.902;12.308;2023-12-07T11:48:19;95708.31;;;2.71;76.98
69171;BME280;56279;47.902;12.308;2023-12-07T11:50:21;95705.50;;;2.73;77.00
69171;BME280;56279;47.902;12.308;2023-12-07T11:52:25;95705.50;;;2.73;76.56
69171;BME280;56279;47.902;12.308;2023-12-07T11:54:27;95702.09;;;2.72;76.43
69171;BME280;56279;47.902;12.308;2023-12-07T11:56:29;95707.31;;;2.72;76.24
69171;BME280;56279;47.902;12.308;2023-12-07T11:58:32;95699.81;;;2.76;76.08
69171;BME280;56279;47.902;12.308;2023-12-07T12:00:34;95691.81;;;2.77;75.92
69171;BME280;56279;47.902;12.308;2023-12-07T12:02:36;95696.78;;;2.79;75.39
69171;BME280;56279;47.902;12.308;2023-12-07T12:04:43;95684.78;;;2.78;75.29
69171;BME280;56279;47.902;12.308;2023-12-07T12:06:48;95691.59;;;2.79;74.66
69171;BME280;56279;47.902;12.308;2023-12-07T12:08:56;95695.00;;;2.79;74.69
69171;BME280;56279;47.902;12.308;2023-12-07T12:13:30;95689.31;;;2.83;74.73
69171;BME280;56279;47.902;12.308;2023-12-07T12:15:32;95679.94;;;2.82;73.82
69171;BME280;56279;47.902;12.308;2023-12-07T12:17:36;95676.28;;;2.83;74.10
69171;BME280;56279;47.902;12.308;2023-12-07T12:19:38;95679.50;;;2.85;73.69
69171;BME280;56279;47.902;12.308;2023-12-07T12:29:41;95680.06;;;2.87;74.06
69171;BME280;56279;47.902;12.308;2023-12-07T12:31:54;95682.69;;;2.87;73.18
69171;BME280;56279;47.902;12.308;2023-12-07T12:34:07;95680.41;;;2.90;73.53
69171;BME280;56279;47.902;12.308;2023-12-07T12:41:54;95682.72;;;2.98;73.32
69171;BME280;56279;47.902;12.308;2023-12-07T12:43:56;95672.06;;;3.00;72.97
69171;BME280;56279;47.902;12.308;2023-12-07T12:45:58;95672.63;;;3.02;72.72
69171;BME280;56279;47.902;12.308;2023-12-07T12:48:00;95665.63;;;3.02;73.02
69171;BME280;56279;47.902;12.308;2023-12-07T12:50:02;95667.00;;;3.05;72.56
69171;BME280;56279;47.902;12.308;2023-12-07T12:52:09;95668.56;;;3.06;72.93
69171;BME280;56279;47.902;12.308;2023-12-07T12:54:11;95661.34;;;3.08;73.11
69171;BME280;56279;47.902;12.308;2023-12-07T12:56:14;95659.31;;;3.10;72.60
69171;BME280;56279;47.902;12.308;2023-12-07T12:58:15;95651.50;;;3.10;73.03
69171;BME280;56279;47.902;12.308;2023-12-07T13:00:18;95656.25;;;3.13;72.81
69171;BME280;56279;47.902;12.308;2023-12-07T13:02:20;95657.84;;;3.14;73.07
69171;BME280;56279;47.902;12.308;2023-12-07T13:04:22;95658.22;;;3.17;73.22
69171;BME280;56279;47.902;12.308;2023-12-07T13:06:23;95658.53;;;3.21;72.87
69171;BME280;56279;47.902;12.308;2023-12-07T13:08:26;95656.50;;;3.23;72.86
69171;BME280;56279;47.902;12.308;2023-12-07T13:10:30;95649.25;;;3.25;72.82
69171;BME280;56279;47.902;12.308;2023-12-07T13:12:32;95650.41;;;3.29;72.96
69171;BME280;56279;47.902;12.308;2023-12-07T13:14:38;95647.81;;;3.29;73.42
69171;BME280;56279;47.902;12.308;2023-12-07T13:16:43;95643.16;;;3.31;73.27
69171;BME280;56279;47.902;12.308;2023-12-07T13:18:44;95647.13;;;3.33;73.01
69171;BME280;56279;47.902;12.308;2023-12-07T13:20:46;95635.09;;;3.32;73.19
69171;BME280;56279;47.902;12.308;2023-12-07T13:22:47;95623.66;;;3.33;73.20
69171;BME280;56279;47.902;12.308;2023-12-07T13:24:49;95625.47;;;3.33;73.26
69171;BME280;56279;47.902;12.308;2023-12-07T13:45:58;95602.69;;;3.28;73.60
69171;BME280;56279;47.902;12.308;2023-12-07T13:48:00;95596.66;;;3.28;73.61
69171;BME280;56279;47.902;12.308;2023-12-07T13:50:03;95595.66;;;3.29;72.89
69171;BME280;56279;47.902;12.308;2023-12-07T13:52:07;95591.56;;;3.33;72.82
69171;BME280;56279;47.902;12.308;2023-12-07T14:06:08;95577.75;;;3.79;71.59
69171;BME280;56279;47.902;12.308;2023-12-07T14:08:10;95581.81;;;3.86;71.42
69171;BME280;56279;47.902;12.308;2023-12-07T14:10:11;95575.13;;;3.90;70.78
69171;BME280;56279;47.902;12.308;2023-12-07T14:12:16;95578.88;;;3.94;71.02
69171;BME280;56279;47.902;12.308;2023-12-07T14:24:52;95566.69;;;3.07;74.17
69171;BME280;56279;47.902;12.308;2023-12-07T14:26:53;95574.78;;;2.88;74.68
69171;BME280;56279;47.902;12.308;2023-12-07T14:28:59;95563.63;;;2.69;74.77
69171;BME280;56279;47.902;12.308;2023-12-07T14:31:03;95558.25;;;2.52;75.05
69171;BME280;56279;47.902;12.308;2023-12-07T15:25:21;95563.75;;;0.11;79.92
69171;BME280;56279;47.902;12.308;2023-12-07T15:27:27;95558.97;;;0.08;80.38
69171;BME280;56279;47.902;12.308;2023-12-07T15:29:29;95553.19;;;0.06;80.51
69171;BME280;56279;47.902;12.308;2023-12-07T15:31:31;95548.22;;;0.04;80.93
69171;BME280;56279;47.902;12.308;2023-12-07T15:33:34;95547.63;;;0.02;80.62
69171;BME280;56279;47.902;12.308;2023-12-07T15:35:35;95550.63;;;-0.01;80.63
69171;BME280;56279;47.902;12.308;2023-12-07T15:37:37;95539.84;;;-0.05;81.57
69171;BME280;56279;47.902;12.308;2023-12-07T15:39:39;95556.44;;;-0.06;81.82
69171;BME280;56279;47.902;12.308;2023-12-07T15:41:41;95543.06;;;-0.09;81.93
69171;BME280;56279;47.902;12.308;2023-12-07T15:43:44;95538.50;;;-0.14;82.22
69171;BME280;56279;47.902;12.308;2023-12-07T15:45:45;95544.88;;;-0.16;82.44
69171;BME280;56279;47.902;12.308;2023-12-07T15:47:47;95545.31;;;-0.19;82.83
69171;BME280;56279;47.902;12.308;2023-12-07T15:49:48;95542.53;;;-0.24;82.91
69171;BME280;56279;47.902;12.308;2023-12-07T15:51:50;95538.53;;;-0.27;82.68
69171;BME280;56279;47.902;12.308;2023-12-07T15:53:51;95543.31;;;-0.30;83.54
69171;BME280;56279;47.902;12.308;2023-12-07T15:55:53;95540.94;;;-0.32;83.68
69171;BME280;56279;47.902;12.308;2023-12-07T15:57:54;95536.97;;;-0.34;83.90
69171;BME280;56279;47.902;12.308;2023-12-07T15:59:58;95537.97;;;-0.35;84.07
69171;BME280;56279;47.902;12.308;2023-12-07T16:02:00;95539.19;;;-0.38;84.00
69171;BME280;56279;47.902;12.308;2023-12-07T16:04:01;95536.00;;;-0.40;83.92
69171;BME280;56279;47.902;12.308;2023-12-07T16:06:03;95541.38;;;-0.41;84.37
69171;BME280;56279;47.902;12.308;2023-12-07T16:08:05;95537.38;;;-0.44;84.85
69171;BME280;56279;47.902;12.308;2023-12-07T16:10:07;95529.03;;;-0.46;84.74
69171;BME280;56279;47.902;12.308;2023-12-07T16:12:10;95536.22;;;-0.48;85.05
69171;BME280;56279;47.902;12.308;2023-12-07T16:14:12;95535.84;;;-0.51;85.40
69171;BME280;56279;47.902;12.308;2023-12-07T16:16:16;95544.81;;;-0.54;85.83
69171;BME280;56279;47.902;12.308;2023-12-07T16:18:18;95546.00;;;-0.56;85.71
69171;BME280;56279;47.902;12.308;2023-12-07T16:20:20;95543.81;;;-0.59;85.77
69171;BME280;56279;47.902;12.308;2023-12-07T16:34:45;95530.88;;;-0.73;86.90
69171;BME280;56279;47.902;12.308;2023-12-07T16:36:46;95532.84;;;-0.75;87.08
69171;BME280;56279;47.902;12.308;2023-12-07T16:38:48;95531.28;;;-0.76;86.71
69171;BME280;56279;47.902;12.308;2023-12-07T16:40:53;95522.69;;;-0.76;87.28
69171;BME280;56279;47.902;12.308;2023-12-07T16:42:54;95529.50;;;-0.75;87.26
69171;BME280;56279;47.902;12.308;2023-12-07T16:44:57;95534.84;;;-0.77;87.74
69171;BME280;56279;47.902;12.308;2023-12-07T16:46:59;95527.28;;;-0.78;87.52
69171;BME280;56279;47.902;12.308;2023-12-07T16:49:02;95517.91;;;-0.79;88.03
69171;BME280;56279;47.902;12.308;2023-12-07T16:51:07;95519.72;;;-0.80;87.70
69171;BME280;56279;47.902;12.308;2023-12-07T16:53:09;95518.13;;;-0.81;88.25
69171;BME280;56279;47.902;12.308;2023-12-07T16:55:10;95512.16;;;-0.81;88.25
69171;BME280;56279;47.902;12.308;2023-12-07T16:57:12;95506.16;;;-0.82;88.21
69171;BME280;56279;47.902;12.308;2023-12-07T16:59:13;95506.38;;;-0.83;88.34
69171;BME280;56279;47.902;12.308;2023-12-07T17:01:14;95505.38;;;-0.82;88.59
69171;BME280;56279;47.902;12.308;2023-12-07T17:03:16;95505.78;;;-0.85;88.58
69171;BME280;56279;47.902;12.308;2023-12-07T17:05:18;95505.19;;;-0.87;89.18
69171;BME280;56279;47.902;12.308;2023-12-07T17:07:19;95497.59;;;-0.89;89.12
69171;BME280;56279;47.902;12.308;2023-12-07T17:09:21;95491.66;;;-0.89;89.05
69171;BME280;56279;47.902;12.308;2023-12-07T17:11:24;95496.03;;;-0.90;89.42
69171;BME280;56279;47.902;12.308;2023-12-07T17:13:26;95484.88;;;-0.90;89.63
69171;BME280;56279;47.902;12.308;2023-12-07T17:15:27;95492.63;;;-0.90;89.40
69171;BME280;56279;47.902;12.308;2023-12-07T17:17:28;95491.25;;;-0.93;89.62
69171;BME280;56279;47.902;12.308;2023-12-07T17:19:30;95485.25;;;-0.93;89.35
69171;BME280;56279;47.902;12.308;2023-12-07T17:21:31;95489.66;;;-0.94;89.99
69171;BME280;56279;47.902;12.308;2023-12-07T17:23:33;95475.91;;;-0.94;90.15
69171;BME280;56279;47.902;12.308;2023-12-07T17:25:34;95478.91;;;-0.97;90.17
69171;BME280;56279;47.902;12.308;2023-12-07T17:27:36;95466.16;;;-0.99;90.27
69171;BME280;56279;47.902;12.308;2023-12-07T17:29:37;95475.72;;;-0.99;90.04
69171;BME280;56279;47.902;12.308;2023-12-07T17:31:39;95468.94;;;-1.00;90.10
69171;BME280;56279;47.902;12.308;2023-12-07T17:33:40;95471.16;;;-1.04;91.22
69171;BME280;56279;47.902;12.308;2023-12-07T17:35:41;95473.53;;;-1.02;90.91
69171;BME280;56279;47.902;12.308;2023-12-07T17:37:43;95478.09;;;-1.04;90.57
69171;BME280;56279;47.902;12.308;2023-12-07T17:39:46;95488.69;;;-1.06;91.22
69171;BME280;56279;47.902;12.308;2023-12-07T17:41:47;95491.44;;;-1.07;90.56
69171;BME280;56279;47.902;12.308;2023-12-07T17:43:49;95485.69;;;-1.09;91.41
69171;BME280;56279;47.902;12.308;2023-12-07T17:45:52;95475.53;;;-1.11;90.77
69171;BME280;56279;47.902;12.308;2023-12-07T17:47:54;95483.50;;;-1.12;91.37
69171;BME280;56279;47.902;12.308;2023-12-07T17:49:56;95486.28;;;-1.14;91.38
69171;BME280;56279;47.902;12.308;2023-12-07T17:51:57;95480.13;;;-1.13;91.48
69171;BME280;56279;47.902;12.308;2023-12-07T17:53:58;95479.31;;;-1.13;91.77
69171;BME280;56279;47.902;12.308;2023-12-07T17:56:02;95475.75;;;-1.12;91.82
69171;BME280;56279;47.902;12.308;2023-12-07T17:58:04;95472.34;;;-1.13;91.29
69171;BME280;56279;47.902;12.308;2023-12-07T18:00:06;95474.72;;;-1.11;91.76
69171;BME280;56279;47.902;12.308;2023-12-07T18:02:10;95464.38;;;-1.11;91.72
69171;BME280;56279;47.902;12.308;2023-12-07T18:04:11;95459.19;;;-1.11;92.20
69171;BME280;56279;47.902;12.308;2023-12-07T18:06:13;95467.97;;;-1.12;92.36
69171;BME280;56279;47.902;12.308;2023-12-07T18:08:14;95460.59;;;-1.15;92.01
69171;BME280;56279;47.902;12.308;2023-12-07T18:10:16;95465.19;;;-1.17;91.87
69171;BME280;56279;47.902;12.308;2023-12-07T18:12:19;95467.38;;;-1.21;92.42
69171;BME280;56279;47.902;12.308;2023-12-07T18:14:21;95460.03;;;-1.24;92.17
69171;BME280;56279;47.902;12.308;2023-12-07T18:16:22;95460.63;;;-1.22;92.41
69171;BME280;56279;47.902;12.308;2023-12-07T18:18:24;95447.84;;;-1.23;92.38
69171;BME280;56279;47.902;12.308;2023-12-07T18:20:25;95443.47;;;-1.23;92.54
69171;BME280;56279;47.902;12.308;2023-12-07T18:22:27;95438.13;;;-1.21;92.09
69171;BME280;56279;47.902;12.308;2023-12-07T18:24:28;95438.72;;;-1.19;92.79
69171;BME280;56279;47.902;12.308;2023-12-07T18:26:29;95430.53;;;-1.16;92.83
69171;BME280;56279;47.902;12.308;2023-12-07T18:28:36;95423.34;;;-1.14;92.33
69171;BME280;56279;47.902;12.308;2023-12-07T18:30:38;95419.56;;;-1.12;92.83
69171;BME280;56279;47.902;12.308;2023-12-07T18:32:41;95414.19;;;-1.10;92.56
69171;BME280;56279;47.902;12.308;2023-12-07T19:24:59;95305.28;;;-1.15;93.13
69171;BME280;56279;47.902;12.308;2023-12-07T19:27:04;95293.91;;;-1.14;93.24
69171;BME280;56279;47.902;12.308;2023-12-07T19:29:05;95288.72;;;-1.14;93.77
69171;BME280;56279;47.902;12.308;2023-12-07T19:31:06;95292.34;;;-1.15;93.48
69171;BME280;56279;47.902;12.308;2023-12-07T19:33:08;95291.75;;;-1.17;93.29
69171;BME280;56279;47.902;12.308;2023-12-07T19:35:09;95302.28;;;-1.19;93.93
69171;BME280;56279;47.902;12.308;2023-12-07T19:37:11;95310.47;;;-1.22;93.94
69171;BME280;56279;47.902;12.308;2023-12-07T19:39:14;95308.50;;;-1.26;93.81
69171;BME280;56279;47.902;12.308;2023-12-07T19:41:20;95313.28;;;-1.30;94.10
69171;BME280;56279;47.902;12.308;2023-12-07T19:43:22;95308.72;;;-1.34;93.90
69171;BME280;56279;47.902;12.308;2023-12-07T19:45:23;95310.94;;;-1.38;93.91
69171;BME280;56279;47.902;12.308;2023-12-07T19:47:25;95320.06;;;-1.42;94.43
69171;BME280;56279;47.902;12.308;2023-12-07T19:49:26;95326.25;;;-1.43;94.63
69171;BME280;56279;47.902;12.308;2023-12-07T19:51:28;95323.84;;;-1.45;94.40
69171;BME280;56279;47.902;12.308;2023-12-07T19:53:29;95337.81;;;-1.46;94.51
69171;BME280;56279;47.902;12.308;2023-12-07T19:55:31;95326.66;;;-1.46;94.45
69171;BME280;56279;47.902;12.308;2023-12-07T19:57:35;95330.25;;;-1.47;94.81
69171;BME280;56279;47.902;12.308;2023-12-07T19:59:42;95324.69;;;-1.51;94.65
69171;BME280;56279;47.902;12.308;2023-12-07T20:01:43;95317.91;;;-1.52;94.61
69171;BME280;56279;47.902;12.308;2023-12-07T20:03:45;95309.38;;;-1.52;95.07
69171;BME280;56279;47.902;12.308;2023-12-07T20:05:46;95311.94;;;-1.52;94.53
69171;BME280;56279;47.902;12.308;2023-12-07T20:07:49;95312.72;;;-1.52;95.23
69171;BME280;56279;47.902;12.308;2023-12-07T20:09:50;95314.94;;;-1.55;94.94
69171;BME280;56279;47.902;12.308;2023-12-07T20:11:54;95307.38;;;-1.57;94.75
69171;BME280;56279;47.902;12.308;2023-12-07T20:13:56;95308.38;;;-1.58;94.70
69171;BME280;56279;47.902;12.308;2023-12-07T20:15:58;95303.59;;;-1.61;95.02
69171;BME280;56279;47.902;12.308;2023-12-07T20:17:59;95302.41;;;-1.65;95.48
69171;BME280;56279;47.902;12.308;2023-12-07T20:20:02;95304.63;;;-1.68;95.19
69171;BME280;56279;47.902;12.308;2023-12-07T20:22:04;95301.22;;;-1.69;95.08
69171;BME280;56279;47.902;12.308;2023-12-07T20:24:12;95292.09;;;-1.71;95.52
69171;BME280;56279;47.902;12.308;2023-12-07T20:26:14;95289.88;;;-1.74;95.45
69171;BME280;56279;47.902;12.308;2023-12-07T20:28:20;95283.53;;;-1.78;95.65
69171;BME280;56279;47.902;12.308;2023-12-07T20:30:22;95276.00;;;-1.80;95.45
69171;BME280;56279;47.902;12.308;2023-12-07T20:32:23;95279.56;;;-1.81;96.16
69171;BME280;56279;47.902;12.308;2023-12-07T20:34:25;95282.53;;;-1.84;95.94
69171;BME280;56279;47.902;12.308;2023-12-07T20:36:27;95284.53;;;-1.86;95.63
69171;BME280;56279;47.902;12.308;2023-12-07T20:38:28;95279.56;;;-1.87;96.10
69171;BME280;56279;47.902;12.308;2023-12-07T20:40:30;95278.56;;;-1.86;96.22
69171;BME280;56279;47.902;12.308;2023-12-07T20:42:31;95274.59;;;-1.89;95.82
69171;BME280;56279;47.902;12.308;2023-12-07T20:44:32;95274.81;;;-1.90;95.82
69171;BME280;56279;47.902;12.308;2023-12-07T22:05:36;95199.09;;;-2.17;95.29
69171;BME280;56279;47.902;12.308;2023-12-07T22:07:38;95186.16;;;-2.17;95.00
69171;BME280;56279;47.902;12.308;2023-12-07T22:09:43;95186.16;;;-2.17;95.83
69171;BME280;56279;47.902;12.308;2023-12-07T22:11:44;95186.34;;;-2.19;95.40
69171;BME280;56279;47.902;12.308;2023-12-07T22:13:46;95182.78;;;-2.18;95.40
69171;BME280;56279;47.902;12.308;2023-12-07T22:15:47;95173.44;;;-2.19;95.56
69171;BME280;56279;47.902;12.308;2023-12-07T22:17:48;95170.25;;;-2.21;95.52
69171;BME280;56279;47.902;12.308;2023-12-07T22:19:53;95168.66;;;-2.22;95.59
69171;BME280;56279;47.902;12.308;2023-12-07T22:21:54;95162.91;;;-2.24;95.28
69171;BME280;56279;47.902;12.308;2023-12-07T22:23:55;95162.31;;;-2.26;95.61
69171;BME280;56279;47.902;12.308;2023-12-07T22:25:57;95157.94;;;-2.25;95.48
69171;BME280;56279;47.902;12.308;2023-12-07T22:28:02;95148.81;;;-2.28;95.43
69171;BME280;56279;47.902;12.308;2023-12-07T22:30:04;95134.28;;;-2.29;95.64
69171;BME280;56279;47.902;12.308;2023-12-07T22:32:06;95135.28;;;-2.30;95.64
69171;BME280;56279;47.902;12.308;2023-12-07T22:34:07;95130.53;;;-2.33;95.52
69171;BME280;56279;47.902;12.308;2023-12-07T22:36:13;95123.78;;;-2.34;95.08
69171;BME280;56279;47.902;12.308;2023-12-07T22:38:15;95117.59;;;-2.33;95.27
